Impacts METAR Board
IDs:

KPBI - Palm Beach Intl, FL, US

Updated at: 2300 UTC 30 Jun 2022
Potential Impact None Slight Moderate High
Time 30/11Z 30/12Z 30/13Z 30/14Z 30/15Z 30/16Z 30/17Z 30/18Z 30/19Z 30/20Z 30/21Z 30/22Z 30/23Z
Temp78 82 83 85 89 89 90 88 89 87 87 86 80
Dewpt75 76 77 74 75 74 74 75 74 75 74 72 74
Altim30.12 30.12 30.14 30.14 30.14 30.14 30.13 30.12 30.11 30.09 30.09 30.09 30.10
VIS10 10 10 10 10 10 10 10 10 10 10 10 10
CIG-- -- 60 60 34 35 39 34 32 34 34 35 33
CoverSCTSCTBKNBKNBKNBKNBKNBKNBKNBKNBKNBKNBKN
FltCatVFRVFRVFRVFRVFRVFRVFRVFRVFRVFRVFRVFRVFR
WX-----RA----TSTSTSTS--TS---TSRA
WDir00017014014014010012011012090220
WSpd0 0 0 3 7 11 9 10 13 13 14 11 3
WGst-- -- -- -- -- -- -- -- -- -- 20 -- --
Raw hourly METARs
KPBI 301053Z 00000KT 10SM FEW027 SCT090 SCT250 26/24 A3012 RMK AO2 SLP199 TCU DSNT NE E T02560239 $
KPBI 301153Z 00000KT 10SM SCT025CB SCT100 SCT250 28/24 A3012 RMK AO2 SLP200 CB S MOV N CB DSNT N NE T02780244 10278 20250 53003
KPBI 301253Z 00000KT 10SM -RA SCT021 BKN060 BKN100 28/25 A3014 RMK AO2 RAB43 SLP204 CB DSNT NE SE P0001 T02830250
KPBI 301353Z 17003KT 10SM SCT024 BKN060 BKN250 29/23 A3014 RMK AO2 LTG DSNT N RAE1259 SLP205 CB DSNT N P0000 T02940233
KPBI 301453Z 14007KT 110V170 10SM SCT025CB BKN034 BKN050 32/24 A3014 RMK AO2 LTG DSNT E SLP206 CB W NW MOV N CB DSNT NE SE SW 60001 T03170239 51005
KPBI 301553Z 14011KT 10SM TS SCT027CB BKN035 BKN055 32/23 A3014 RMK AO2 LTG DSNT E-SW TSB35 SLP206 OCNL LTGICCG SW-NW TS SW-NW MOV N CB DSNT E SE T03170233
KPBI 301653Z 14009KT 10SM TS SCT029CB BKN039 BKN100 32/23 A3013 RMK AO2 LTG DSNT ALQDS SLP201 OCNL LTGICCG SW-W TS SW-W MOV N CB DSNT N E SW T03220233
KPBI 301753Z 10010KT 10SM TS SCT028CB BKN034 BKN044 31/24 A3012 RMK AO2 LTG DSNT S-NW TSE27B53 SLP199 OCNL LTGICCG NW-N TS NW-N MOV N CB DSNT SW-W NW 60001 T03110239 10322 20278 58007
KPBI 301853Z 12013KT 10SM TS SCT023CB BKN032 BKN100 32/23 A3011 RMK AO2 WSHFT 1751 LTG DSNT SW SLP194 FRQ LTGICCG SW-N TS SW-N MOV N CB DSNT NE T03170233
KPBI 301958Z 11013KT 10SM SCT026CB BKN034 BKN046 31/24 A3009 RMK AO2 TSE57 CB SW-N MOV N T03060239
KPBI 302053Z 12014G20KT 10SM TS SCT026CB BKN034 BKN250 31/23 A3009 RMK AO2 LTG DSNT SW TSE1957B44 SLP188 OCNL LTGICCG SW-NW TS SW-NW MOV N TCU DSNT NE-E T03060233 56010
KPBI 302153Z 09011KT 10SM SCT026CB BKN035 BKN250 30/22 A3009 RMK AO2 TSE49 SLP189 CB NW-NE MOV N T03000222 $
KPBI 302253Z 22003KT 10SM -TSRA SCT023CB BKN033 BKN110 27/23 A3010 RMK AO2 WSHFT 2229 LTG DSNT W AND NW RAB40 TSB08 SLP193 OCNL LTGICCG SW-N TS SW-N MOV N P0006 T02670233 $



Page loaded:  23:35 UTC  |   04:35 PM Pacific  |   05:35 PM Mountain  |   06:35 PM Central  |   07:35 PM Eastern

 

ADVISORIES

FORECASTS

FORECASTS

OBSERVATIONS

USER TOOLS

ABOUT US